createdAt,value
2023-03-16T00:00:56.069Z,34.4
2023-03-16T00:06:49.966Z,34.3
2023-03-16T00:18:22.496Z,34.3
2023-03-16T00:23:45.308Z,34.3
2023-03-16T00:29:07.138Z,34.3
2023-03-16T00:35:00.452Z,34.3
2023-03-16T00:40:53.553Z,34.2
2023-03-16T00:46:47.338Z,34.2
2023-03-16T00:52:09.377Z,34.1
2023-03-16T00:58:02.970Z,34.1
2023-03-16T01:03:41.109Z,34.1
2023-03-16T01:09:33.317Z,34.1
2023-03-16T01:14:39.504Z,34.1
2023-03-16T01:20:31.866Z,34.1
2023-03-16T01:25:37.602Z,34
2023-03-16T01:31:15.809Z,34
2023-03-16T01:37:09.858Z,34
2023-03-16T01:43:01.421Z,34
2023-03-16T01:48:24.856Z,33.9
2023-03-16T01:54:03.202Z,33.9
2023-03-16T01:59:54.880Z,33.9
2023-03-16T02:10:41.183Z,33.9
2023-03-16T02:16:35.346Z,33.8
2023-03-16T02:22:13.016Z,33.8
2023-03-16T02:28:06.171Z,33.8
2023-03-16T02:33:59.572Z,33.8
2023-03-16T02:39:37.828Z,33.7
2023-03-16T02:51:09.745Z,33.7
2023-03-16T02:57:02.322Z,33.6
2023-03-16T03:07:48.514Z,33.6
2023-03-16T03:13:41.144Z,33.6
2023-03-16T03:19:34.026Z,33.6
2023-03-16T03:31:03.543Z,33.6
2023-03-16T03:36:57.157Z,33.5
2023-03-16T03:42:18.714Z,33.5
2023-03-16T03:47:41.084Z,33.4
2023-03-16T03:53:03.751Z,33.4
2023-03-16T03:58:27.643Z,33.4
2023-03-16T04:04:22.241Z,33.4
2023-03-16T04:10:15.015Z,33.4
2023-03-16T04:15:52.406Z,33.3
2023-03-16T04:21:29.799Z,33.3
2023-03-16T04:27:08.657Z,33.3
2023-03-16T04:32:30.273Z,33.3
2023-03-16T04:38:08.249Z,33.3
2023-03-16T04:43:46.221Z,33.3
2023-03-16T04:49:23.820Z,33.2
2023-03-16T04:55:01.846Z,33.2
2023-03-16T05:00:55.148Z,33.1
2023-03-16T05:06:53.989Z,33.1
2023-03-16T05:12:30.733Z,33.1
2023-03-16T05:17:52.954Z,33.1
2023-03-16T05:23:45.809Z,33.1
2023-03-16T05:29:23.196Z,33
2023-03-16T05:34:47.564Z,33
2023-03-16T05:40:42.907Z,33
2023-03-16T05:46:37.111Z,32.9
2023-03-16T05:52:14.855Z,32.9
2023-03-16T05:57:53.079Z,32.9
2023-03-16T06:03:46.617Z,32.9
2023-03-16T06:09:41.045Z,32.9
2023-03-16T06:15:33.800Z,32.8
2023-03-16T06:21:25.474Z,32.8
2023-03-16T06:27:20.276Z,32.8
2023-03-16T06:33:13.350Z,32.8
2023-03-16T06:39:08.937Z,32.8
2023-03-16T06:50:43.203Z,32.7
2023-03-16T06:56:21.632Z,32.7
2023-03-16T07:02:14.510Z,32.6
2023-03-16T07:08:06.917Z,32.6
2023-03-16T07:13:59.603Z,32.6
2023-03-16T07:19:57.765Z,32.6
2023-03-16T07:25:51.404Z,32.6
2023-03-16T07:32:05.931Z,32.5
2023-03-16T07:37:59.763Z,32.5
2023-03-16T07:49:13.822Z,32.5
2023-03-16T07:54:53.290Z,32.4
2023-03-16T08:01:02.076Z,32.4
2023-03-16T08:06:56.359Z,32.4
2023-03-16T08:12:52.143Z,32.4
2023-03-16T08:18:30.119Z,32.1
2023-03-16T08:24:35.038Z,31.8
2023-03-16T08:30:28.960Z,31.6
2023-03-16T08:36:07.731Z,31.4
2023-03-16T08:41:57.085Z,31.3
2023-03-16T08:47:35.902Z,31.1
2023-03-16T08:53:12.752Z,31
2023-03-16T08:59:27.223Z,30.9
2023-03-16T09:05:23.520Z,30.8
2023-03-16T09:17:02.516Z,30.7
2023-03-16T09:22:57.289Z,30.7
2023-03-16T09:28:53.988Z,30.6
2023-03-16T09:34:33.248Z,30.6
2023-03-16T09:40:28.634Z,30.6
2023-03-16T09:46:08.027Z,30.6
2023-03-16T09:51:38.997Z,30.6
2023-03-16T09:57:16.021Z,30.5
2023-03-16T10:02:53.745Z,30.5
2023-03-16T10:08:46.307Z,30.5
2023-03-16T10:14:39.096Z,30.5
2023-03-16T10:20:31.853Z,30.4
2023-03-16T10:26:24.107Z,30.4
2023-03-16T10:32:01.927Z,30.4
2023-03-16T10:37:41.970Z,30.4
2023-03-16T10:43:34.935Z,30.4
2023-03-16T10:49:30.619Z,30.4
2023-03-16T10:55:23.470Z,30.4
2023-03-16T11:01:16.460Z,30.4
2023-03-16T11:07:10.601Z,30.4
2023-03-16T11:13:16.814Z,30.4
2023-03-16T11:19:21.327Z,30.3
2023-03-16T11:25:14.466Z,30.3
2023-03-16T11:31:06.649Z,30.3
2023-03-16T11:37:19.059Z,30.3
2023-03-16T11:42:56.523Z,30.3
2023-03-16T11:48:48.699Z,30.3
2023-03-16T11:54:41.089Z,30.3
2023-03-16T12:00:28.023Z,30.3
2023-03-16T12:06:40.875Z,30.3
2023-03-16T12:12:18.410Z,30.3
2023-03-16T12:18:28.256Z,30.2
2023-03-16T12:24:21.231Z,30.2
2023-03-16T12:30:14.401Z,30.2
2023-03-16T12:35:52.441Z,30.2
2023-03-16T12:41:44.487Z,30.1
2023-03-16T12:47:37.353Z,30.1
2023-03-16T12:53:17.559Z,30.1
2023-03-16T12:58:55.317Z,30.1
2023-03-16T13:04:17.063Z,30.1
2023-03-16T13:10:00.192Z,30.1
2023-03-16T13:15:38.310Z,30.1
2023-03-16T13:21:35.353Z,30.1
2023-03-16T13:27:29.096Z,30.1
2023-03-16T13:32:51.298Z,30.1
2023-03-16T13:37:58.304Z,29.7
2023-03-16T13:43:39.718Z,29.4
2023-03-16T13:49:17.143Z,29.2
2023-03-16T13:54:53.377Z,29
2023-03-16T14:00:32.291Z,28.9
2023-03-16T14:06:09.674Z,28.8
2023-03-16T14:11:50.707Z,28.6
2023-03-16T14:17:48.678Z,28.5
2023-03-16T14:23:49.532Z,28.4
2023-03-16T14:29:42.592Z,28.4
2023-03-16T14:35:37.007Z,28.3
2023-03-16T14:41:15.262Z,28.3
2023-03-16T14:47:09.088Z,28.3
2023-03-16T14:52:46.939Z,28.2
2023-03-16T14:58:39.918Z,28.2
2023-03-16T15:04:50.781Z,28.2
2023-03-16T15:10:46.326Z,28.1
2023-03-16T15:16:23.336Z,28.1
2023-03-16T15:22:15.458Z,28.1
2023-03-16T15:27:53.162Z,28.1
2023-03-16T15:33:45.920Z,28.1
2023-03-16T15:39:23.728Z,28.1
2023-03-16T15:45:28.898Z,28.1
2023-03-16T15:51:28.089Z,28.1
2023-03-16T15:57:42.601Z,28.1
2023-03-16T16:03:36.368Z,28.1
2023-03-16T16:09:13.129Z,28.1
2023-03-16T16:14:48.793Z,28.1
2023-03-16T16:20:55.711Z,28.1
2023-03-16T16:26:47.739Z,28.1
2023-03-16T16:32:10.649Z,28.1
2023-03-16T16:37:14.350Z,28.1
2023-03-16T16:42:36.710Z,28.1
2023-03-16T16:47:29.322Z,28.1
2023-03-16T16:52:51.185Z,28.1
2023-03-16T16:58:24.100Z,28
2023-03-16T17:03:48.932Z,28
2023-03-16T17:19:57.608Z,28
2023-03-16T17:25:51.572Z,28
2023-03-16T17:31:14.351Z,28
2023-03-16T17:42:20.727Z,28
2023-03-16T17:48:13.872Z,27.9
2023-03-16T17:54:07.362Z,28
2023-03-16T18:05:25.140Z,27.9
2023-03-16T18:11:19.165Z,27.9
2023-03-16T18:16:41.964Z,27.9
2023-03-16T18:22:04.088Z,27.9
2023-03-16T18:27:58.893Z,27.9
2023-03-16T18:33:53.190Z,27.6
2023-03-16T18:39:45.686Z,27.4
2023-03-16T18:45:23.393Z,27.3
2023-03-16T18:51:01.986Z,27.2
2023-03-16T18:56:55.225Z,27.1
2023-03-16T19:02:17.279Z,27.1
2023-03-16T19:07:27.139Z,27
2023-03-16T19:12:47.827Z,27
2023-03-16T19:18:26.604Z,26.9
2023-03-16T19:29:42.124Z,26.9
2023-03-16T19:35:04.458Z,26.9
2023-03-16T19:40:55.800Z,26.9
2023-03-16T19:46:49.699Z,26.9
2023-03-16T19:52:42.529Z,26.8
2023-03-16T19:58:35.727Z,26.8
2023-03-16T20:04:28.505Z,26.8
2023-03-16T20:16:00.161Z,26.8
2023-03-16T20:21:23.152Z,26.8
2023-03-16T20:26:44.605Z,26.8
2023-03-16T20:32:37.830Z,26.7
2023-03-16T20:38:16.036Z,26.7
2023-03-16T20:43:54.748Z,26.7
2023-03-16T20:49:32.179Z,26.7
2023-03-16T20:54:53.229Z,26.7
2023-03-16T21:00:46.596Z,26.7
2023-03-16T21:06:40.202Z,26.7
2023-03-16T21:12:41.967Z,26.7
2023-03-16T21:18:05.096Z,26.6
2023-03-16T21:23:57.662Z,26.6
2023-03-16T21:29:51.125Z,26.7
2023-03-16T21:35:44.242Z,26.6
2023-03-16T21:41:38.926Z,26.6
2023-03-16T21:47:32.877Z,26.6
2023-03-16T21:53:26.086Z,26.6
2023-03-16T21:58:50.246Z,26.6
2023-03-16T22:04:56.061Z,26.6
2023-03-16T22:10:49.697Z,26.6
2023-03-16T22:16:27.370Z,26.6
2023-03-16T22:22:20.486Z,26.6
2023-03-16T22:27:58.335Z,26.6
2023-03-16T22:33:35.627Z,26.6
2023-03-16T22:39:28.359Z,26.6
2023-03-16T22:45:20.570Z,26.6
2023-03-16T22:50:58.014Z,26.6
2023-03-16T22:56:51.745Z,26.6
2023-03-16T23:02:45.461Z,26.6
2023-03-16T23:08:38.997Z,26.6
2023-03-16T23:14:18.533Z,26.6
2023-03-16T23:20:24.779Z,26.5
2023-03-16T23:26:25.043Z,26.5
2023-03-16T23:32:03.273Z,26.6
2023-03-16T23:37:41.178Z,26.5
2023-03-16T23:43:18.138Z,26.5
2023-03-16T23:48:55.990Z,26.5
2023-03-16T23:54:33.727Z,26.5
